Time;durP1;ratioP1;P1;durP2;ratioP2;P2;SDS_P1;SDS_P2;PMS_P1;PMS_P2;Temp;Humidity;BMP_temperature;BMP_pressure;BME280_temperature;BME280_humidity;BME280_pressure;Samples;Min_cycle;Max_cycle;Signal;HPM_P1;HPM_P2
2022/12/06 00:00:53;;;;;;;;;;;;;;;;;;10462879;28;19925;-69
2022/12/06 00:05:55;;;;;;;;;;;;;;;;;;10461793;28;20341;-69
2022/12/06 00:10:57;;;;;;;;;;;;;;;;;;10461606;28;19931;-69
2022/12/06 00:15:59;;;;;;;;;;;;;;;;;;10462061;28;19924;-69
2022/12/06 00:21:01;;;;;;;;;;;;;;;;;;10461405;28;19929;-69
2022/12/06 00:26:03;;;;;;;;;;;;;;;;;;10461819;28;19925;-69
2022/12/06 00:31:05;;;;;;;;;;;;;;;;;;10460876;28;20426;-69
2022/12/06 00:36:07;;;;;;;;;;;;;;;;;;10461038;28;20363;-69
2022/12/06 00:41:09;;;;;;;;;;;;;;;;;;10460629;28;19928;-69
2022/12/06 00:46:11;;;;;;;;;;;;;;;;;;10460629;28;19975;-69
2022/12/06 00:51:13;;;;;;;;;;;;;;;;;;10460289;28;20355;-69
2022/12/06 00:56:16;;;;;;;;;;;;;;;;;;10459304;28;19929;-69
2022/12/06 01:01:19;;;;;;;;;;;;;;;;;;10459636;28;20368;-69
2022/12/06 01:06:21;;;;;;;;;;;;;;;;;;10459954;28;19929;-69
2022/12/06 01:11:23;;;;;;;;;;;;;;;;;;10460122;28;19958;-69
2022/12/06 01:16:25;;;;;;;;;;;;;;;;;;10459490;28;19925;-69
2022/12/06 01:21:28;;;;;;;;;;;;;;;;;;10458622;28;19970;-69
2022/12/06 01:26:30;;;;;;;;;;;;;;;;;;10459488;28;19932;-69
2022/12/06 01:31:32;;;;;;;;;;;;;;;;;;10458452;28;19974;-69
2022/12/06 01:36:39;;;;;;;;;;;;;;;;;;10458733;28;20299;-69
2022/12/06 01:41:41;;;;;;;;;;;;;;;;;;10458922;28;19925;-69
2022/12/06 01:46:43;;;;;;;;;;;;;;;;;;10458702;28;19935;-69
2022/12/06 01:51:45;;;;;;;;;;;;;;;;;;10458293;28;19951;-69
2022/12/06 01:56:47;;;;;;;;;;;;;;;;;;10457827;28;19924;-69
2022/12/06 02:01:50;;;;;;;;;;;;;;;;;;10457386;28;20372;-69
2022/12/06 02:06:52;;;;;;;;;;;;;;;;;;10457982;28;19929;-69
2022/12/06 02:11:54;;;;;;;;;;;;;;;;;;10457069;28;20326;-69
2022/12/06 02:16:56;;;;;;;;;;;;;;;;;;10457798;28;19929;-69
2022/12/06 02:21:58;;;;;;;;;;;;;;;;;;10439279;28;19932;-69
2022/12/06 02:27:00;;;;;;;;;;;;;;;;;;10456659;28;19924;-69
2022/12/06 02:32:02;;;;;;;;;;;;;;;;;;10456551;28;19948;-69
2022/12/06 02:37:04;;;;;;;;;;;;;;;;;;10456696;28;19948;-69
2022/12/06 02:42:06;;;;;;;;;;;;;;;;;;10457171;28;19925;-69
2022/12/06 02:47:09;;;;;;;;;;;;;;;;;;10456286;28;20379;-69
2022/12/06 02:52:11;;;;;;;;;;;;;;;;;;10439213;28;19929;-69
2022/12/06 02:57:13;;;;;;;;;;;;;;;;;;10456972;28;19925;-69
2022/12/06 03:02:15;;;;;;;;;;;;;;;;;;10455960;28;20371;-69
2022/12/06 03:07:17;;;;;;;;;;;;;;;;;;10456461;28;19925;-69
2022/12/06 03:12:19;;;;;;;;;;;;;;;;;;10456043;28;20295;-69
2022/12/06 03:17:21;;;;;;;;;;;;;;;;;;10442099;28;19933;-69
2022/12/06 03:22:23;;;;;;;;;;;;;;;;;;10445656;28;19925;-69
2022/12/06 03:27:25;;;;;;;;;;;;;;;;;;10463602;28;19924;-69
2022/12/06 03:32:27;;;;;;;;;;;;;;;;;;10463138;28;20042;-69
2022/12/06 03:37:29;;;;;;;;;;;;;;;;;;10463834;28;20054;-69
2022/12/06 03:42:31;;;;;;;;;;;;;;;;;;10462900;28;19935;-69
2022/12/06 03:47:33;;;;;;;;;;;;;;;;;;10462592;28;20375;-69
2022/12/06 03:52:35;;;;;;;;;;;;;;;;;;10463239;28;19929;-69
2022/12/06 03:57:37;;;;;;;;;;;;;;;;;;10462415;28;19925;-69
2022/12/06 04:02:39;;;;;;;;;;;;;;;;;;10461775;28;19947;-69
2022/12/06 04:07:42;;;;;;;;;;;;;;;;;;10462032;28;20380;-70
2022/12/06 04:12:59;;;;;;;;;;;;;;;;;;10462247;28;19979;-70
2022/12/06 04:18:12;;;;;;;;;;;;;;;;;;10461271;28;20292;-69
2022/12/06 04:23:14;;;;;;;;;;;;;;;;;;10420772;28;19968;-69
2022/12/06 04:38:57;;;;;;;;;;;;;;;;;;10461196;28;19925;-69
2022/12/06 04:44:00;;;;;;;;;;;;;;;;;;10461324;28;19924;-69
2022/12/06 04:49:02;;;;;;;;;;;;;;;;;;10461027;28;19974;-69
2022/12/06 04:54:04;;;;;;;;;;;;;;;;;;10460646;28;19925;-69
2022/12/06 04:59:06;;;;;;;;;;;;;;;;;;10460080;28;19929;-69
2022/12/06 05:04:08;;;;;;;;;;;;;;;;;;10460456;28;19925;-69
2022/12/06 05:09:10;;;;;;;;;;;;;;;;;;10460065;28;19964;-69
2022/12/06 05:14:12;;;;;;;;;;;;;;;;;;10460042;28;19928;-69
2022/12/06 05:19:14;;;;;;;;;;;;;;;;;;10459357;28;19924;-69
2022/12/06 05:24:16;;;;;;;;;;;;;;;;;;10459350;28;19925;-69
2022/12/06 05:29:18;;;;;;;;;;;;;;;;;;10458600;28;20376;-69
2022/12/06 05:34:20;;;;;;;;;;;;;;;;;;10459122;28;19932;-69
2022/12/06 05:39:23;;;;;;;;;;;;;;;;;;10458096;28;20295;-69
2022/12/06 05:44:25;;;;;;;;;;;;;;;;;;10457967;28;19932;-69
2022/12/06 05:49:27;;;;;;;;;;;;;;;;;;10439393;28;19925;-69
2022/12/06 05:54:29;;;;;;;;;;;;;;;;;;10458527;28;19925;-69
2022/12/06 05:59:32;;;;;;;;;;;;;;;;;;10457769;28;19925;-69
2022/12/06 06:04:34;;;;;;;;;;;;;;;;;;10457911;28;19932;-69
2022/12/06 06:09:36;;;;;;;;;;;;;;;;;;10457409;28;19933;-69
2022/12/06 06:14:38;;;;;;;;;;;;;;;;;;10457226;28;19936;-69
2022/12/06 06:19:40;;;;;;;;;;;;;;;;;;10456781;28;20380;-69
2022/12/06 06:24:42;;;;;;;;;;;;;;;;;;10457355;28;19933;-69
2022/12/06 06:29:44;;;;;;;;;;;;;;;;;;10439705;28;19978;-69
2022/12/06 06:34:46;;;;;;;;;;;;;;;;;;10456786;28;20275;-69
2022/12/06 06:39:48;;;;;;;;;;;;;;;;;;10457304;28;19929;-69
2022/12/06 06:44:53;;;;;;;;;;;;;;;;;;10456002;28;20310;-69
2022/12/06 06:49:55;;;;;;;;;;;;;;;;;;10457058;28;19932;-69
2022/12/06 06:54:57;;;;;;;;;;;;;;;;;;10447153;28;20046;-69
2022/12/06 06:59:59;;;;;;;;;;;;;;;;;;10465120;28;19924;-69
2022/12/06 07:05:01;;;;;;;;;;;;;;;;;;10465059;28;19931;-70
2022/12/06 07:10:03;;;;;;;;;;;;;;;;;;10464426;28;19924;-70
2022/12/06 07:15:06;;;;;;;;;;;;;;;;;;10464591;28;19931;-70
2022/12/06 07:20:08;;;;;;;;;;;;;;;;;;10464285;28;19974;-69
2022/12/06 07:25:10;;;;;;;;;;;;;;;;;;10463596;28;20335;-69
2022/12/06 07:30:12;;;;;;;;;;;;;;;;;;10463548;28;19936;-69
2022/12/06 07:35:17;;;;;;;;;;;;;;;;;;10463284;28;20368;-69
2022/12/06 07:40:20;;;;;;;;;;;;;;;;;;10446099;28;19925;-69
2022/12/06 07:45:42;;;;;;;;;;;;;;;;;;10462827;28;20011;-69
2022/12/06 07:50:44;;;;;;;;;;;;;;;;;;10463357;28;19925;-69
2022/12/06 07:55:46;;;;;;;;;;;;;;;;;;10462304;28;19971;-69
2022/12/06 08:00:48;;;;;;;;;;;;;;;;;;10461783;28;19978;-69
2022/12/06 08:05:50;;;;;;;;;;;;;;;;;;10460451;28;19925;-69
2022/12/06 08:10:52;;;;;;;;;;;;;;;;;;10461117;28;19929;-69
2022/12/06 08:15:54;;;;;;;;;;;;;;;;;;10461220;28;19940;-69
2022/12/06 08:20:56;;;;;;;;;;;;;;;;;;10460957;28;19931;-69
2022/12/06 08:25:58;;;;;;;;;;;;;;;;;;10461286;28;20323;-69
2022/12/06 08:31:00;;;;;;;;;;;;;;;;;;10461802;28;19924;-69
2022/12/06 08:36:07;;;;;;;;;;;;;;;;;;10460954;28;19959;-69
2022/12/06 08:41:54;;;;;;;;;;;;;;;;;;10460845;28;20283;-69
2022/12/06 08:46:31;;;;;;;;;;;;;;;;;;10487423;28;19928;-69
2022/12/06 08:51:33;;;;;;;;;;;;;;;;;;10461610;28;19925;-69
2022/12/06 08:56:35;;;;;;;;;;;;;;;;;;10460838;28;19929;-69
2022/12/06 09:01:37;;;;;;;;;;;;;;;;;;10442746;28;19925;-69
2022/12/06 09:06:40;;;;;;;;;;;;;;;;;;10460222;28;20019;-69
2022/12/06 09:11:42;;;;;;;;;;;;;;;;;;10459673;28;19932;-69
2022/12/06 09:16:44;;;;;;;;;;;;;;;;;;10458616;28;19924;-69
2022/12/06 09:21:46;;;;;;;;;;;;;;;;;;10458923;28;20331;-69
2022/12/06 09:26:48;;;;;;;;;;;;;;;;;;10458818;28;20334;-69
2022/12/06 09:31:50;;;;;;;;;;;;;;;;;;10458774;28;19924;-70
2022/12/06 09:36:52;;;;;;;;;;;;;;;;;;10459196;28;19979;-70
2022/12/06 09:41:54;;;;;;;;;;;;;;;;;;10458395;28;20318;-69
2022/12/06 09:46:56;;;;;;;;;;;;;;;;;;10458710;28;19928;-69
2022/12/06 09:51:59;;;;;;;;;;;;;;;;;;10458007;28;19948;-69
2022/12/06 09:57:01;;;;;;;;;;;;;;;;;;10458450;28;19970;-69
2022/12/06 10:02:03;;;;;;;;;;;;;;;;;;10458011;28;20364;-69
2022/12/06 10:07:05;;;;;;;;;;;;;;;;;;10458104;28;19925;-69
2022/12/06 10:12:07;;;;;;;;;;;;;;;;;;10458030;28;19932;-69
2022/12/06 10:17:09;;;;;;;;;;;;;;;;;;10440265;28;19925;-69
2022/12/06 10:22:11;;;;;;;;;;;;;;;;;;10456998;28;19929;-69
2022/12/06 10:27:13;;;;;;;;;;;;;;;;;;10457490;28;19978;-69
2022/12/06 10:32:15;;;;;;;;;;;;;;;;;;10457559;28;19925;-69
2022/12/06 10:37:17;;;;;;;;;;;;;;;;;;10456804;28;19972;-69
2022/12/06 10:42:19;;;;;;;;;;;;;;;;;;10457294;28;19925;-69
2022/12/06 10:47:21;;;;;;;;;;;;;;;;;;10456521;28;20429;-69
2022/12/06 10:52:23;;;;;;;;;;;;;;;;;;10457063;28;19925;-69
2022/12/06 10:57:25;;;;;;;;;;;;;;;;;;10456437;28;20269;-69
2022/12/06 11:02:27;;;;;;;;;;;;;;;;;;10456269;28;20371;-69
2022/12/06 11:07:30;;;;;;;;;;;;;;;;;;10456315;28;20008;-69
2022/12/06 11:12:32;;;;;;;;;;;;;;;;;;10456684;28;19929;-69
2022/12/06 11:17:34;;;;;;;;;;;;;;;;;;10456674;28;19925;-69
2022/12/06 11:22:36;;;;;;;;;;;;;;;;;;10455714;28;19925;-69
2022/12/06 11:27:39;;;;;;;;;;;;;;;;;;10456267;28;19951;-69
2022/12/06 11:32:41;;;;;;;;;;;;;;;;;;10471666;22;20348;-69
2022/12/06 11:37:43;;;;;;;;;;;;;;;;;;10540705;28;20370;-70
2022/12/06 11:42:45;;;;;;;;;;;;;;;;;;10546476;28;19924;-70
2022/12/06 11:47:47;;;;;;;;;;;;;;;;;;10534420;28;19928;-70
2022/12/06 11:52:49;;;;;;;;;;;;;;;;;;10505009;28;19932;-70
2022/12/06 11:57:51;;;;;;;;;;;;;;;;;;10546551;28;19970;-70
2022/12/06 12:02:53;;;;;;;;;;;;;;;;;;10519930;28;19935;-70
2022/12/06 12:07:56;;;;;;;;;;;;;;;;;;10504187;28;19925;-70
2022/12/06 12:18:20;;;;;;;;;;;;;;;;;;10504289;28;19985;-70
2022/12/06 12:23:22;;;;;;;;;;;;;;;;;;10503723;28;19968;-70
2022/12/06 12:28:24;;;;;;;;;;;;;;;;;;10503302;28;19970;-70
2022/12/06 12:33:27;;;;;;;;;;;;;;;;;;10502934;28;19924;-70
2022/12/06 12:38:29;;;;;;;;;;;;;;;;;;10502415;28;19925;-70
2022/12/06 12:43:31;;;;;;;;;;;;;;;;;;10519231;28;20271;-70
2022/12/06 12:48:33;;;;;;;;;;;;;;;;;;10536113;28;19931;-70
2022/12/06 12:53:35;;;;;;;;;;;;;;;;;;10544266;28;19932;-70
2022/12/06 12:58:37;;;;;;;;;;;;;;;;;;10543433;28;20378;-71
2022/12/06 13:03:39;;;;;;;;;;;;;;;;;;10514735;28;20340;-71
2022/12/06 13:08:52;;;;;;;;;;;;;;;;;;10501839;28;19931;-71
2022/12/06 13:13:54;;;;;;;;;;;;;;;;;;10501556;28;19982;-71
2022/12/06 13:18:56;;;;;;;;;;;;;;;;;;10539208;28;19928;-71
2022/12/06 13:23:58;;;;;;;;;;;;;;;;;;10542380;28;20367;-71
2022/12/06 13:29:00;;;;;;;;;;;;;;;;;;10520959;28;19924;-71
2022/12/06 13:34:02;;;;;;;;;;;;;;;;;;10500352;28;19932;-71
2022/12/06 13:39:04;;;;;;;;;;;;;;;;;;10511733;28;19928;-71
2022/12/06 13:44:06;;;;;;;;;;;;;;;;;;10541619;28;20325;-71
2022/12/06 13:49:08;;;;;;;;;;;;;;;;;;10499386;28;19925;-71
2022/12/06 13:54:10;;;;;;;;;;;;;;;;;;10500091;28;19925;-71
2022/12/06 13:59:14;;;;;;;;;;;;;;;;;;10499797;28;19969;-71
2022/12/06 14:04:16;;;;;;;;;;;;;;;;;;10500626;28;19925;-71
2022/12/06 14:09:18;;;;;;;;;;;;;;;;;;10499653;28;19971;-72
2022/12/06 14:14:20;;;;;;;;;;;;;;;;;;10498789;28;19925;-71
2022/12/06 14:19:22;;;;;;;;;;;;;;;;;;10500419;28;19924;-71
2022/12/06 14:24:24;;;;;;;;;;;;;;;;;;10499135;28;19928;-71
2022/12/06 14:29:26;;;;;;;;;;;;;;;;;;10498517;28;19924;-71
2022/12/06 14:34:28;;;;;;;;;;;;;;;;;;10498082;28;19974;-71
2022/12/06 14:39:30;;;;;;;;;;;;;;;;;;10500022;28;19928;-71
2022/12/06 14:44:32;;;;;;;;;;;;;;;;;;10498717;28;19925;-71
2022/12/06 14:54:55;;;;;;;;;;;;;;;;;;10498604;28;19994;-71
2022/12/06 14:59:57;;;;;;;;;;;;;;;;;;10481826;28;19924;-71
2022/12/06 15:05:19;;;;;;;;;;;;;;;;;;10498393;28;19925;-71
2022/12/06 15:10:21;;;;;;;;;;;;;;;;;;10498723;28;19928;-71
2022/12/06 15:15:23;;;;;;;;;;;;;;;;;;10504644;28;19974;-71
2022/12/06 15:20:25;;;;;;;;;;;;;;;;;;10506086;28;19974;-70
2022/12/06 15:25:27;;;;;;;;;;;;;;;;;;10510900;28;19925;-71
2022/12/06 15:30:29;;;;;;;;;;;;;;;;;;10528725;28;19924;-70
2022/12/06 15:35:31;;;;;;;;;;;;;;;;;;10508615;28;19928;-71
2022/12/06 15:40:34;;;;;;;;;;;;;;;;;;10502810;28;20372;-71
2022/12/06 15:45:36;;;;;;;;;;;;;;;;;;10503094;28;19924;-70
2022/12/06 15:50:38;;;;;;;;;;;;;;;;;;10503024;28;19932;-71
2022/12/06 15:55:41;;;;;;;;;;;;;;;;;;10504741;28;19928;-71
2022/12/06 16:00:44;;;;;;;;;;;;;;;;;;10504058;28;19924;-71
2022/12/06 16:05:47;;;;;;;;;;;;;;;;;;10504266;28;19939;-70
2022/12/06 16:10:49;;;;;;;;;;;;;;;;;;10503543;28;19925;-71
2022/12/06 16:16:11;;;;;;;;;;;;;;;;;;10489164;28;19925;-70
2022/12/06 16:21:13;;;;;;;;;;;;;;;;;;10503810;28;20015;-70
2022/12/06 16:26:15;;;;;;;;;;;;;;;;;;10508076;28;19925;-71
2022/12/06 16:31:17;;;;;;;;;;;;;;;;;;10503380;28;19924;-70
2022/12/06 16:36:20;;;;;;;;;;;;;;;;;;10510451;28;19964;-71
2022/12/06 16:41:22;;;;;;;;;;;;;;;;;;10543046;28;20386;-70
2022/12/06 16:46:24;;;;;;;;;;;;;;;;;;10544476;28;19974;-71
2022/12/06 16:51:27;;;;;;;;;;;;;;;;;;10544437;28;19930;-71
2022/12/06 16:56:30;;;;;;;;;;;;;;;;;;10543578;28;20333;-71
2022/12/06 17:01:34;;;;;;;;;;;;;;;;;;10544006;28;19924;-70
2022/12/06 17:06:36;;;;;;;;;;;;;;;;;;10543074;28;20326;-70
2022/12/06 17:17:02;;;;;;;;;;;;;;;;;;10542810;28;19947;-71
2022/12/06 17:22:06;;;;;;;;;;;;;;;;;;10543258;28;19928;-71
2022/12/06 17:27:08;;;;;;;;;;;;;;;;;;10542326;28;20317;-71
2022/12/06 17:32:10;;;;;;;;;;;;;;;;;;10542844;28;19978;-71
2022/12/06 17:37:12;;;;;;;;;;;;;;;;;;10540659;28;19931;-70
2022/12/06 17:47:35;;;;;;;;;;;;;;;;;;10504446;28;19924;-70
2022/12/06 17:52:37;;;;;;;;;;;;;;;;;;10511480;28;19931;-70
2022/12/06 17:57:39;;;;;;;;;;;;;;;;;;10541887;28;19924;-70
2022/12/06 18:02:41;;;;;;;;;;;;;;;;;;10541123;28;19928;-70
2022/12/06 18:07:44;;;;;;;;;;;;;;;;;;10522842;28;20012;-70
2022/12/06 18:12:46;;;;;;;;;;;;;;;;;;10498924;28;20363;-70
2022/12/06 18:17:48;;;;;;;;;;;;;;;;;;10499400;28;19929;-70
2022/12/06 18:22:50;;;;;;;;;;;;;;;;;;10499717;28;20363;-70
2022/12/06 18:27:52;;;;;;;;;;;;;;;;;;10530373;28;19928;-70
2022/12/06 18:32:54;;;;;;;;;;;;;;;;;;10530330;28;19928;-70
2022/12/06 18:37:56;;;;;;;;;;;;;;;;;;10520821;28;19970;-70
2022/12/06 18:42:58;;;;;;;;;;;;;;;;;;10539209;28;19923;-70
2022/12/06 18:48:01;;;;;;;;;;;;;;;;;;10541925;28;19924;-70
2022/12/06 18:53:03;;;;;;;;;;;;;;;;;;10546249;28;20428;-70
2022/12/06 18:58:05;;;;;;;;;;;;;;;;;;10547995;28;19932;-70
2022/12/06 19:03:07;;;;;;;;;;;;;;;;;;10544305;28;19931;-70
2022/12/06 19:08:09;;;;;;;;;;;;;;;;;;10546181;28;20340;-70
2022/12/06 19:13:11;;;;;;;;;;;;;;;;;;10533854;28;20298;-70
2022/12/06 19:18:13;;;;;;;;;;;;;;;;;;10547638;28;19923;-70
2022/12/06 19:23:15;;;;;;;;;;;;;;;;;;10546433;28;20386;-70
2022/12/06 19:28:17;;;;;;;;;;;;;;;;;;10546502;28;19928;-70
2022/12/06 19:33:20;;;;;;;;;;;;;;;;;;10535288;28;19931;-69
2022/12/06 19:38:23;;;;;;;;;;;;;;;;;;10527075;28;20329;-70
2022/12/06 19:48:46;;;;;;;;;;;;;;;;;;10546317;28;19925;-71
2022/12/06 19:53:49;;;;;;;;;;;;;;;;;;10545127;28;19947;-70
2022/12/06 19:58:51;;;;;;;;;;;;;;;;;;10545042;28;19924;-70
2022/12/06 20:03:56;;;;;;;;;;;;;;;;;;10545751;28;19947;-70
2022/12/06 20:08:58;;;;;;;;;;;;;;;;;;10544260;28;19928;-70
2022/12/06 20:14:00;;;;;;;;;;;;;;;;;;10546004;28;19977;-70
2022/12/06 20:19:02;;;;;;;;;;;;;;;;;;10508606;28;19988;-70
2022/12/06 20:24:04;;;;;;;;;;;;;;;;;;10544578;28;20307;-70
2022/12/06 20:29:06;;;;;;;;;;;;;;;;;;10525368;28;19969;-70
2022/12/06 20:34:08;;;;;;;;;;;;;;;;;;10543460;28;19924;-70
2022/12/06 20:39:16;;;;;;;;;;;;;;;;;;10526035;28;19932;-70
2022/12/06 20:44:18;;;;;;;;;;;;;;;;;;10544829;28;19924;-70
2022/12/06 20:49:20;;;;;;;;;;;;;;;;;;10543994;28;19924;-71
2022/12/06 20:54:22;;;;;;;;;;;;;;;;;;10541524;28;19924;-70
2022/12/06 20:59:24;;;;;;;;;;;;;;;;;;10544273;28;19924;-70
2022/12/06 21:04:26;;;;;;;;;;;;;;;;;;10542374;28;20432;-70
2022/12/06 21:09:28;;;;;;;;;;;;;;;;;;10542237;28;19950;-70
2022/12/06 21:14:32;;;;;;;;;;;;;;;;;;10541354;28;20417;-70
2022/12/06 21:19:34;;;;;;;;;;;;;;;;;;10542202;28;20424;-70
2022/12/06 21:24:38;;;;;;;;;;;;;;;;;;10543357;28;19924;-70
2022/12/06 21:29:41;;;;;;;;;;;;;;;;;;10523921;28;19928;-71
2022/12/06 21:34:43;;;;;;;;;;;;;;;;;;10541712;28;19924;-71
2022/12/06 21:39:47;;;;;;;;;;;;;;;;;;10542577;28;19924;-70
2022/12/06 21:44:49;;;;;;;;;;;;;;;;;;10542298;28;19924;-71
2022/12/06 21:49:51;;;;;;;;;;;;;;;;;;10541222;28;19985;-71
2022/12/06 21:54:55;;;;;;;;;;;;;;;;;;10541343;28;20379;-70
2022/12/06 21:59:57;;;;;;;;;;;;;;;;;;10541229;28;19924;-70
2022/12/06 22:04:59;;;;;;;;;;;;;;;;;;10537290;28;19931;-70
2022/12/06 22:10:01;;;;;;;;;;;;;;;;;;10539439;28;19931;-70
2022/12/06 22:15:03;;;;;;;;;;;;;;;;;;10541266;28;19924;-70
2022/12/06 22:20:05;;;;;;;;;;;;;;;;;;10522623;28;20367;-70
2022/12/06 22:25:08;;;;;;;;;;;;;;;;;;10539182;28;19977;-70
2022/12/06 22:30:10;;;;;;;;;;;;;;;;;;10540243;28;19947;-71
2022/12/06 22:35:12;;;;;;;;;;;;;;;;;;10540763;28;19924;-70
2022/12/06 22:40:14;;;;;;;;;;;;;;;;;;10539160;28;19924;-70
2022/12/06 22:45:16;;;;;;;;;;;;;;;;;;10539896;28;20302;-70
2022/12/06 22:50:18;;;;;;;;;;;;;;;;;;10539638;28;19924;-70
2022/12/06 22:55:20;;;;;;;;;;;;;;;;;;10539820;28;19924;-70
2022/12/06 23:00:22;;;;;;;;;;;;;;;;;;10522377;28;19928;-70
2022/12/06 23:05:24;;;;;;;;;;;;;;;;;;10538680;28;19969;-70
2022/12/06 23:10:26;;;;;;;;;;;;;;;;;;10539215;28;20036;-70
2022/12/06 23:15:28;;;;;;;;;;;;;;;;;;10540219;28;19977;-70
2022/12/06 23:20:30;;;;;;;;;;;;;;;;;;10538389;28;20390;-70
2022/12/06 23:25:32;;;;;;;;;;;;;;;;;;10539284;28;19924;-70
2022/12/06 23:30:34;;;;;;;;;;;;;;;;;;10538951;28;19924;-70
2022/12/06 23:35:36;;;;;;;;;;;;;;;;;;10541216;28;20440;-70
2022/12/06 23:40:38;;;;;;;;;;;;;;;;;;10547371;28;19928;-70
2022/12/06 23:45:40;;;;;;;;;;;;;;;;;;10546556;28;19950;-70
2022/12/06 23:50:42;;;;;;;;;;;;;;;;;;10522623;22;20329;-62
2022/12/06 23:55:44;;;;;;;;;;;;;;;;;;10454111;28;19932;-62
